Lincoln, KS

11:37 AM CDT on March 27, 2017 (GMT -0500)
Rural Lincoln County | | Change Station

Elev 1631 ft 38.94 °N, 98.27 °W | Updated 8 seconds ago

Overcast
Overcast
48.4 °F
Feels Like 44 °F
N
11.4
Wind Variable Wind from NNE
Gusts 12.3 mph

Today
High -- | Low -- °F
--% Chance of Precip.
Yesterday
High -- | Low -- °F
Precip. -- in
Pressure 29.98 in
Visibility 8.0 miles
Clouds Overcast 1200 ft
Windchill 44 °F
Dew Point 41 °F
Humidity 76%
Rainfall 0.00 in
Snow Depth Not available.
7:24 AM 7:51 PM
Waning Crescent, 0% visible
METAR KSLN 271553Z 01008KT 8SM OVC012 11/08 A2998 RMK AO2 SLP152 T01060078
Pressure 29.98 in
Visibility 8.0 miles
Clouds Overcast 1200 ft
Windchill 44 °F
Dew Point 41 °F
Humidity 76%
Rainfall 0.00 in
Snow Depth Not available.
7:24 AM 7:51 PM
Waning Crescent, 0% visible
METAR KSLN 271553Z 01008KT 8SM OVC012 11/08 A2998 RMK AO2 SLP152 T01060078

Get Severe Weather Alerts

Thanks for signing up!

Be on the lookout for a verification email in your inbox.

You'll start receiving the daily forecast at 8 AM.

×

10-Day Weather Forecast

Almanac

Astronomy

Mar. 27, 2017 Rise Set
Actual Time
Civil Twilight
Nautical Twilight
Astronomical Twilight
Moon
Length of Visible Light
Length of Day
Tomorrow will be .
, % of the Moon is Illuminated

Today's Extremes

State Highs State Lows

Community

WunderPhotos

Upload Photos

1,962,540 photos uploaded!

WunderBlog® & News

Nearby

Air Quality

  Air Quality AQ Index Pollutant
Not available.

Snow Depth

Station Depth Elevation

Earthquake Activity

City Distance Mag. Time & Date
Minimum magnitude displayed is 2.5.

Earthquake Activity

City Distance Mag. Time & Date
Minimum magnitude displayed is 2.5.

Coastal Water Temperatures

Place Temperature

Stations

Nearby Weather Stations

Station Location Temp. Windchill Dew Point Humidity Wind Precip. Elev Updated Type
                   

Watches & Warnings

There are currently no watches in effect.